createdAt,value
2019-03-26T00:02:31.208Z,4.54
2019-03-26T00:05:38.875Z,4.54
2019-03-26T00:08:55.840Z,4.62
2019-03-26T00:12:12.776Z,4.61
2019-03-26T00:15:20.596Z,4.57
2019-03-26T00:18:28.462Z,4.59
2019-03-26T00:21:45.465Z,4.76
2019-03-26T00:24:53.375Z,4.74
2019-03-26T00:28:01.114Z,4.81
2019-03-26T00:31:18.323Z,4.80
2019-03-26T00:34:26.173Z,4.82
2019-03-26T00:37:34.014Z,4.79
2019-03-26T00:40:51.304Z,4.97
2019-03-26T00:43:59.136Z,4.87
2019-03-26T00:47:06.878Z,4.92
2019-03-26T00:50:23.824Z,4.87
2019-03-26T00:53:31.696Z,4.99
2019-03-26T00:56:38.944Z,5.02
2019-03-26T00:59:46.631Z,5.01
2019-03-26T01:03:03.876Z,5.08
2019-03-26T01:06:11.835Z,5.03
2019-03-26T01:09:19.675Z,4.93
2019-03-26T01:12:36.819Z,5.03
2019-03-26T01:15:44.595Z,4.96
2019-03-26T01:18:52.434Z,5.08
2019-03-26T01:22:09.487Z,5.10
2019-03-26T01:25:17.272Z,5.04
2019-03-26T01:28:25.134Z,5.07
2019-03-26T01:31:42.169Z,5.12
2019-03-26T01:34:50.209Z,5.13
2019-03-26T01:37:57.959Z,5.14
2019-03-26T01:41:15.032Z,5.12
2019-03-26T01:44:22.943Z,5.09
2019-03-26T01:47:30.836Z,5.11
2019-03-26T01:50:47.854Z,5.22
2019-03-26T01:53:55.787Z,5.10
2019-03-26T01:57:03.547Z,4.99
2019-03-26T02:00:20.575Z,4.88
2019-03-26T02:03:28.511Z,4.91
2019-03-26T02:06:36.257Z,4.90
2019-03-26T02:09:53.425Z,4.88
2019-03-26T02:13:01.296Z,4.93
2019-03-26T02:16:09.193Z,4.96
2019-03-26T02:19:26.208Z,5.07
2019-03-26T02:22:33.872Z,5.09
2019-03-26T02:25:41.622Z,5.10
2019-03-26T02:28:49.435Z,4.95
2019-03-26T02:31:57.263Z,5.03
2019-03-26T02:35:17.831Z,4.80
2019-03-26T02:38:14.785Z,4.88
2019-03-26T02:41:22.447Z,4.89
2019-03-26T02:44:30.189Z,4.95
2019-03-26T02:47:38.017Z,4.77
2019-03-26T02:50:45.862Z,4.82
2019-03-26T02:54:02.844Z,4.86
2019-03-26T02:57:10.677Z,4.88
2019-03-26T03:00:18.603Z,4.93
2019-03-26T03:03:35.684Z,4.98
2019-03-26T03:06:43.348Z,4.95
2019-03-26T03:09:51.158Z,4.93
2019-03-26T03:12:58.725Z,4.78
2019-03-26T03:16:15.769Z,4.89
2019-03-26T03:19:23.519Z,4.89
2019-03-26T03:22:31.376Z,4.84
2019-03-26T03:25:48.541Z,4.66
2019-03-26T03:28:56.303Z,4.71
2019-03-26T03:32:03.983Z,4.65
2019-03-26T03:35:12.268Z,4.70
2019-03-26T03:38:20.096Z,4.52
2019-03-26T03:41:37.170Z,4.69
2019-03-26T03:44:45.044Z,4.64
2019-03-26T03:47:52.877Z,4.68
2019-03-26T03:51:13.394Z,4.66
2019-03-26T03:54:30.603Z,4.63
2019-03-26T03:57:52.791Z,4.54
2019-03-26T04:01:00.087Z,4.66
2019-03-26T04:04:07.923Z,4.55
2019-03-26T04:07:24.764Z,4.63
2019-03-26T04:10:32.608Z,4.80
2019-03-26T04:13:40.278Z,4.82
2019-03-26T04:16:47.945Z,4.88
2019-03-26T04:19:55.799Z,4.93
2019-03-26T04:23:03.728Z,4.96
2019-03-26T04:26:20.778Z,5.09
2019-03-26T04:29:28.684Z,5.05
2019-03-26T04:32:36.527Z,5.13
2019-03-26T04:35:59.554Z,5.17
2019-03-26T04:39:07.732Z,5.08
2019-03-26T04:42:15.467Z,5.09
2019-03-26T04:45:23.241Z,5.12
2019-03-26T04:48:30.907Z,5.14
2019-03-26T04:51:38.732Z,5.05
2019-03-26T04:54:46.484Z,5.26
2019-03-26T04:57:54.233Z,5.12
2019-03-26T05:01:01.921Z,5.29
2019-03-26T05:04:18.781Z,5.41
2019-03-26T05:07:26.610Z,5.46
2019-03-26T05:10:34.426Z,5.43
2019-03-26T05:13:51.437Z,5.49
2019-03-26T05:16:59.350Z,5.56
2019-03-26T05:20:07.600Z,5.48
2019-03-26T05:23:15.252Z,5.51
2019-03-26T05:26:23.013Z,5.54
2019-03-26T05:29:30.681Z,5.45
2019-03-26T05:32:47.459Z,5.51
2019-03-26T05:35:55.252Z,5.56
2019-03-26T05:39:04.063Z,5.46
2019-03-26T05:42:11.740Z,5.54
2019-03-26T05:45:19.539Z,5.48
2019-03-26T05:48:27.250Z,5.51
2019-03-26T05:51:35.187Z,5.49
2019-03-26T05:54:52.336Z,5.57
2019-03-26T05:58:00.094Z,5.54
2019-03-26T06:01:07.868Z,5.53
2019-03-26T06:04:25.168Z,5.59
2019-03-26T06:07:33.595Z,5.53
2019-03-26T06:10:50.710Z,5.60
2019-03-26T06:13:58.553Z,5.50
2019-03-26T06:17:06.423Z,5.54
2019-03-26T06:20:23.441Z,5.66
2019-03-26T06:23:31.243Z,5.57
2019-03-26T06:26:39.184Z,5.72
2019-03-26T06:29:56.289Z,5.70
2019-03-26T06:33:04.131Z,5.70
2019-03-26T06:36:11.862Z,5.75
2019-03-26T06:39:28.928Z,5.83
2019-03-26T06:42:36.797Z,5.77
2019-03-26T06:45:44.539Z,5.92
2019-03-26T06:48:52.276Z,5.89
2019-03-26T06:52:00.093Z,5.90
2019-03-26T06:55:08.437Z,5.96
2019-03-26T06:58:16.108Z,5.92
2019-03-26T07:01:23.258Z,5.92
2019-03-26T07:04:30.930Z,5.84
2019-03-26T07:07:38.681Z,5.95
2019-03-26T07:10:46.504Z,6.01
2019-03-26T07:13:54.291Z,6.08
2019-03-26T07:17:11.316Z,6.21
2019-03-26T07:20:28.264Z,6.26
2019-03-26T07:23:36.170Z,6.29
2019-03-26T07:26:43.961Z,6.35
2019-03-26T07:30:01.054Z,6.35
2019-03-26T07:33:08.971Z,6.42
2019-03-26T07:36:16.611Z,6.48
2019-03-26T07:39:33.741Z,6.62
2019-03-26T07:42:41.601Z,6.62
2019-03-26T07:45:49.451Z,6.69
2019-03-26T07:49:06.617Z,6.78
2019-03-26T07:52:15.745Z,6.81
2019-03-26T07:55:23.772Z,6.77
2019-03-26T07:58:41.013Z,6.87
2019-03-26T08:01:48.930Z,6.83
2019-03-26T08:04:57.132Z,6.85
2019-03-26T08:08:05.038Z,6.90
2019-03-26T08:11:12.856Z,6.92
2019-03-26T08:14:29.894Z,6.95
2019-03-26T08:17:37.791Z,6.96
2019-03-26T08:20:45.768Z,6.96
2019-03-26T08:23:53.588Z,7.03
2019-03-26T08:27:01.349Z,7.13
2019-03-26T08:30:18.576Z,7.14
2019-03-26T08:33:26.237Z,7.17
2019-03-26T08:36:32.366Z,7.29
2019-03-26T08:39:49.851Z,7.35
2019-03-26T08:42:57.700Z,7.45
2019-03-26T08:46:05.435Z,7.52
2019-03-26T08:49:22.377Z,7.31
2019-03-26T08:52:39.417Z,7.27
2019-03-26T08:55:47.238Z,7.19
2019-03-26T08:58:55.049Z,7.17
2019-03-26T09:02:12.135Z,7.23
2019-03-26T09:05:19.867Z,7.16
2019-03-26T09:08:27.615Z,6.89
2019-03-26T09:11:44.828Z,6.80
2019-03-26T09:14:53.063Z,6.73
2019-03-26T09:18:01.236Z,6.70
2019-03-26T09:21:09.224Z,6.77
2019-03-26T09:24:26.454Z,6.76
2019-03-26T09:27:34.340Z,6.88
2019-03-26T09:30:41.982Z,6.94
2019-03-26T09:33:59.178Z,7.06
2019-03-26T09:37:07.003Z,7.12
2019-03-26T09:40:15.072Z,7.19
2019-03-26T09:43:31.953Z,7.40
2019-03-26T09:46:38.197Z,7.52
2019-03-26T09:49:45.808Z,7.59
2019-03-26T09:53:03.553Z,7.45
2019-03-26T09:56:11.395Z,6.92
2019-03-26T09:59:19.378Z,6.76
2019-03-26T10:02:27.239Z,6.70
2019-03-26T10:05:34.916Z,6.77
2019-03-26T10:08:52.958Z,6.91
2019-03-26T10:12:00.720Z,7.12
2019-03-26T10:15:07.315Z,7.24
2019-03-26T10:18:14.955Z,7.22
2019-03-26T10:21:32.004Z,7.31
2019-03-26T10:24:39.867Z,7.31
2019-03-26T10:27:47.634Z,7.29
2019-03-26T10:31:04.821Z,7.52
2019-03-26T10:34:11.971Z,7.81
2019-03-26T10:37:19.797Z,7.71
2019-03-26T10:40:35.323Z,7.84
2019-03-26T10:43:41.576Z,7.83
2019-03-26T10:46:49.373Z,7.90
2019-03-26T10:49:57.063Z,7.88
2019-03-26T10:53:14.284Z,8.05
2019-03-26T10:56:22.139Z,8.08
2019-03-26T10:59:29.920Z,8.20
2019-03-26T11:02:47.272Z,8.37
2019-03-26T11:05:55.133Z,8.38
2019-03-26T11:09:03.355Z,8.37
2019-03-26T11:12:11.020Z,8.51
2019-03-26T11:15:18.837Z,8.56
2019-03-26T11:18:35.924Z,8.57
2019-03-26T11:21:43.682Z,8.50
2019-03-26T11:24:51.423Z,8.33
2019-03-26T11:28:08.705Z,8.31
2019-03-26T11:31:16.658Z,8.24
2019-03-26T11:34:24.507Z,8.26
2019-03-26T11:37:32.276Z,8.40
2019-03-26T11:40:40.035Z,8.54
2019-03-26T11:43:46.006Z,8.68
2019-03-26T11:47:03.113Z,8.55
2019-03-26T11:50:10.493Z,8.61
2019-03-26T11:53:18.446Z,8.57
2019-03-26T11:56:26.184Z,8.21
2019-03-26T11:59:42.916Z,8.01
2019-03-26T12:02:50.768Z,7.90
2019-03-26T12:05:58.544Z,8.15
2019-03-26T12:09:15.778Z,8.57
2019-03-26T12:12:23.609Z,8.56
2019-03-26T12:15:31.363Z,8.33
2019-03-26T12:18:48.692Z,8.31
2019-03-26T12:21:56.556Z,8.32
2019-03-26T12:25:04.547Z,8.33
2019-03-26T12:28:21.417Z,8.34
2019-03-26T12:31:29.290Z,8.38
2019-03-26T12:34:37.131Z,8.43
2019-03-26T12:37:54.275Z,8.31
2019-03-26T12:41:01.934Z,8.28
2019-03-26T12:44:09.681Z,8.34
2019-03-26T12:47:27.096Z,8.33
2019-03-26T12:50:34.779Z,8.50
2019-03-26T12:53:40.828Z,8.73
2019-03-26T12:56:48.658Z,8.96
2019-03-26T12:59:56.403Z,8.91
2019-03-26T13:03:04.557Z,8.84
2019-03-26T13:06:12.387Z,9.28
2019-03-26T13:09:20.266Z,9.66
2019-03-26T13:12:38.967Z,10.65
2019-03-26T13:15:46.722Z,10.58
2019-03-26T13:18:54.464Z,10.71
2019-03-26T13:22:11.723Z,12.29
2019-03-26T13:25:19.488Z,11.40
2019-03-26T13:28:26.757Z,11.40
2019-03-26T13:31:34.753Z,10.95
2019-03-26T13:34:51.762Z,11.02
2019-03-26T13:37:59.577Z,10.15
2019-03-26T13:41:07.304Z,10.31
2019-03-26T13:44:24.374Z,10.69
2019-03-26T13:47:41.350Z,11.25
2019-03-26T13:50:49.272Z,11.07
2019-03-26T13:53:57.120Z,10.70
2019-03-26T13:57:13.934Z,10.76
2019-03-26T14:00:35.770Z,10.55
2019-03-26T14:03:43.563Z,10.33
2019-03-26T14:06:52.532Z,9.91
2019-03-26T14:10:10.318Z,10.04
2019-03-26T14:13:18.185Z,10.04
2019-03-26T14:16:25.929Z,10.21
2019-03-26T14:19:42.750Z,10.38
2019-03-26T14:22:50.544Z,10.38
2019-03-26T14:25:58.281Z,10.21
2019-03-26T14:29:06.127Z,10.53
2019-03-26T14:32:13.795Z,10.40
2019-03-26T14:35:21.733Z,10.23
2019-03-26T14:38:38.850Z,10.32
2019-03-26T14:41:46.728Z,10.02
2019-03-26T14:44:54.447Z,9.82
2019-03-26T14:48:11.632Z,9.98
2019-03-26T14:51:19.302Z,9.81
2019-03-26T14:54:27.242Z,9.65
2019-03-26T14:57:44.337Z,9.69
2019-03-26T15:01:01.308Z,9.75
2019-03-26T15:04:09.051Z,9.63
2019-03-26T15:07:16.714Z,9.72
2019-03-26T15:10:34.036Z,9.82
2019-03-26T15:13:41.699Z,9.69
2019-03-26T15:16:49.379Z,9.69
2019-03-26T15:19:57.115Z,9.53
2019-03-26T15:23:05.090Z,9.74
2019-03-26T15:26:12.761Z,9.55
2019-03-26T15:29:30.088Z,9.65
2019-03-26T15:32:38.644Z,9.38
2019-03-26T15:35:55.717Z,9.49
2019-03-26T15:39:05.312Z,9.32
2019-03-26T15:42:13.045Z,9.35
2019-03-26T15:45:29.996Z,9.28
2019-03-26T15:48:37.684Z,9.14
2019-03-26T15:51:45.767Z,9.30
2019-03-26T15:55:02.790Z,9.21
2019-03-26T15:58:10.815Z,9.11
2019-03-26T16:01:18.823Z,9.15
2019-03-26T16:04:26.585Z,9.18
2019-03-26T16:07:34.335Z,9.13
2019-03-26T16:10:51.572Z,9.13
2019-03-26T16:13:59.331Z,8.96
2019-03-26T16:17:07.074Z,8.98
2019-03-26T16:20:15.601Z,8.86
2019-03-26T16:23:23.395Z,8.83
2019-03-26T16:26:40.393Z,8.87
2019-03-26T16:29:48.390Z,8.80
2019-03-26T16:32:56.219Z,8.78
2019-03-26T16:36:13.139Z,8.68
2019-03-26T16:39:21.051Z,8.58
2019-03-26T16:42:28.933Z,8.42
2019-03-26T16:45:46.269Z,8.47
2019-03-26T16:48:54.120Z,8.14
2019-03-26T16:52:01.851Z,8.13
2019-03-26T16:55:18.700Z,8.20
2019-03-26T16:58:26.361Z,8.03
2019-03-26T17:01:34.084Z,8.03
2019-03-26T17:04:41.756Z,8.00
2019-03-26T17:07:58.798Z,7.97
2019-03-26T17:11:06.747Z,7.81
2019-03-26T17:14:14.562Z,7.74
2019-03-26T17:17:31.696Z,7.82
2019-03-26T17:20:39.593Z,7.66
2019-03-26T17:23:47.438Z,7.67
2019-03-26T17:26:55.372Z,7.61
2019-03-26T17:30:03.717Z,7.65
2019-03-26T17:33:11.541Z,7.52
2019-03-26T17:36:19.403Z,7.47
2019-03-26T17:39:27.342Z,7.37
2019-03-26T17:42:35.226Z,7.52
2019-03-26T17:45:52.839Z,7.57
2019-03-26T17:49:00.757Z,7.48
2019-03-26T17:52:17.993Z,7.50
2019-03-26T17:55:25.945Z,7.53
2019-03-26T17:58:33.624Z,7.59
2019-03-26T18:01:50.626Z,7.58
2019-03-26T18:04:58.811Z,7.55
2019-03-26T18:08:05.211Z,7.54
2019-03-26T18:11:12.871Z,7.48
2019-03-26T18:14:20.826Z,7.55
2019-03-26T18:17:37.914Z,7.56
2019-03-26T18:20:45.663Z,7.45
2019-03-26T18:23:53.587Z,7.51
2019-03-26T18:27:10.676Z,7.50
2019-03-26T18:30:18.556Z,7.36
2019-03-26T18:33:26.428Z,7.40
2019-03-26T18:36:43.496Z,7.31
2019-03-26T18:39:51.263Z,7.25
2019-03-26T18:42:59.047Z,7.16
2019-03-26T18:46:16.291Z,7.29
2019-03-26T18:49:24.095Z,7.23
2019-03-26T18:52:31.752Z,7.31
2019-03-26T18:55:49.043Z,7.27
2019-03-26T18:58:56.806Z,7.19
2019-03-26T19:02:04.538Z,7.18
2019-03-26T19:05:21.691Z,7.09
2019-03-26T19:08:39.899Z,7.18
2019-03-26T19:11:46.847Z,7.04
2019-03-26T19:14:54.713Z,7.20
2019-03-26T19:18:02.460Z,7.17
2019-03-26T19:21:10.271Z,7.20
2019-03-26T19:24:27.400Z,7.24
2019-03-26T19:27:35.511Z,7.16
2019-03-26T19:30:43.306Z,7.20
2019-03-26T19:33:51.241Z,7.21
2019-03-26T19:36:59.051Z,7.23
2019-03-26T19:40:16.280Z,7.24
2019-03-26T19:43:23.956Z,7.23
2019-03-26T19:46:31.720Z,7.25
2019-03-26T19:49:48.797Z,7.29
2019-03-26T19:52:57.164Z,7.24
2019-03-26T19:56:05.012Z,7.21
2019-03-26T19:59:12.862Z,7.20
2019-03-26T20:02:20.724Z,7.20
2019-03-26T20:05:37.731Z,7.25
2019-03-26T20:08:45.940Z,7.18
2019-03-26T20:12:03.205Z,7.24
2019-03-26T20:15:11.498Z,7.17
2019-03-26T20:18:19.132Z,7.15
2019-03-26T20:21:36.425Z,7.12
2019-03-26T20:24:44.099Z,7.17
2019-03-26T20:27:51.906Z,7.16
2019-03-26T20:31:08.866Z,7.28
2019-03-26T20:34:16.679Z,7.22
2019-03-26T20:37:24.489Z,7.22
2019-03-26T20:40:41.770Z,7.25
2019-03-26T20:43:49.566Z,7.24
2019-03-26T20:46:57.239Z,7.20
2019-03-26T20:50:14.823Z,7.27
2019-03-26T20:53:22.669Z,7.17
2019-03-26T20:56:30.740Z,7.23
2019-03-26T20:59:38.484Z,7.28
2019-03-26T21:02:46.419Z,7.22
2019-03-26T21:05:54.149Z,7.23
2019-03-26T21:09:02.348Z,7.22
2019-03-26T21:12:19.169Z,7.25
2019-03-26T21:15:27.099Z,7.13
2019-03-26T21:18:35.038Z,7.24
2019-03-26T21:21:53.131Z,7.22
2019-03-26T21:25:10.665Z,7.25
2019-03-26T21:28:18.452Z,7.24
2019-03-26T21:31:26.279Z,7.25
2019-03-26T21:34:34.278Z,7.28
2019-03-26T21:37:41.907Z,7.29
2019-03-26T21:40:59.221Z,7.34
2019-03-26T21:44:07.091Z,7.30
2019-03-26T21:47:14.918Z,7.21
2019-03-26T21:50:31.929Z,7.29
2019-03-26T21:53:39.755Z,7.12
2019-03-26T21:56:47.623Z,7.24
2019-03-26T22:00:06.421Z,7.24
2019-03-26T22:03:14.383Z,7.27
2019-03-26T22:06:22.126Z,7.20
2019-03-26T22:09:39.102Z,7.21
2019-03-26T22:12:46.971Z,7.12
2019-03-26T22:15:54.763Z,7.17
2019-03-26T22:19:01.506Z,7.18
2019-03-26T22:22:09.415Z,7.19
2019-03-26T22:25:26.196Z,7.22
2019-03-26T22:28:34.115Z,7.13
2019-03-26T22:31:41.771Z,7.11
2019-03-26T22:34:59.055Z,7.12
2019-03-26T22:38:06.720Z,7.10
2019-03-26T22:41:14.583Z,7.12
2019-03-26T22:44:31.193Z,7.10
2019-03-26T22:47:31.799Z,7.02
2019-03-26T22:50:39.628Z,7.03
2019-03-26T22:53:56.753Z,7.07
2019-03-26T22:57:04.866Z,6.94
2019-03-26T23:00:22.419Z,7.03
2019-03-26T23:03:30.239Z,6.96
2019-03-26T23:06:38.130Z,7.01
2019-03-26T23:09:55.314Z,7.09
2019-03-26T23:13:03.159Z,7.02
2019-03-26T23:16:11.322Z,7.03
2019-03-26T23:19:19.028Z,6.98
2019-03-26T23:22:26.939Z,7.00
2019-03-26T23:25:43.976Z,7.05
2019-03-26T23:28:51.709Z,7.01
2019-03-26T23:31:59.682Z,6.93
2019-03-26T23:35:08.339Z,7.00
2019-03-26T23:38:25.377Z,7.06
2019-03-26T23:41:33.220Z,7.03
2019-03-26T23:44:41.041Z,7.03
2019-03-26T23:47:58.235Z,7.09
2019-03-26T23:51:05.979Z,7.10
2019-03-26T23:54:13.951Z,6.98
2019-03-26T23:57:30.971Z,7.05
